Terminal Aerodrome Forecast
Issued by NWS

Home | Current Version | Previous Version | Text Only | Print | Product List | Glossary On
Versions: 1 2 3 4 5 6 7 8 9 10 11 12 13 14 15 16 17 18 19 20 21
000
FTUS43 KGRR 291730
TAFJXN
TAF
KJXN 291730Z 2918/3018 04006KT P6SM OVC025
      TEMPO 2918/2919 OVC035
     FM291900 05005KT P6SM BKN040
     FM301100 09006KT P6SM BKN200=

USA.gov is the U.S. government's official web portal to all federal, state and local government web resources and services.